createdAt,value
2017-06-02T00:00:58.111Z,301
2017-06-02T00:02:05.620Z,305
2017-06-02T00:03:13.108Z,301
2017-06-02T00:04:20.590Z,298
2017-06-02T00:05:27.742Z,303
2017-06-02T00:06:35.524Z,304
2017-06-02T00:07:43.005Z,304
2017-06-02T00:08:50.481Z,297
2017-06-02T00:09:57.960Z,302
2017-06-02T00:11:05.443Z,304
2017-06-02T00:12:13.223Z,302
2017-06-02T00:13:20.717Z,305
2017-06-02T00:14:28.199Z,306
2017-06-02T00:15:35.678Z,302
2017-06-02T00:16:43.393Z,301
2017-06-02T00:17:51.179Z,297
2017-06-02T00:18:58.666Z,304
2017-06-02T00:20:06.154Z,304
2017-06-02T00:21:13.638Z,304
2017-06-02T00:22:21.122Z,303
2017-06-02T00:23:28.970Z,303
2017-06-02T00:24:36.451Z,299
2017-06-02T00:25:43.936Z,298
2017-06-02T00:26:51.415Z,311
2017-06-02T00:27:58.894Z,306
2017-06-02T00:29:06.729Z,305
2017-06-02T00:30:14.224Z,299
2017-06-02T00:31:21.699Z,297
2017-06-02T00:32:28.847Z,303
2017-06-02T00:33:36.336Z,305
2017-06-02T00:34:43.787Z,305
2017-06-02T00:35:51.265Z,302
2017-06-02T00:36:58.770Z,304
2017-06-02T00:38:06.254Z,306
2017-06-02T00:39:13.742Z,305
2017-06-02T00:40:21.573Z,305
2017-06-02T00:41:29.056Z,302
2017-06-02T00:42:36.550Z,303
2017-06-02T00:43:44.025Z,301
2017-06-02T00:44:51.508Z,302
2017-06-02T00:45:59.368Z,301
2017-06-02T00:47:07.084Z,304
2017-06-02T00:48:14.614Z,306
2017-06-02T00:49:22.106Z,302
2017-06-02T00:50:29.637Z,311
2017-06-02T00:51:37.420Z,309
2017-06-02T00:52:44.914Z,306
2017-06-02T00:53:52.396Z,305
2017-06-02T00:54:59.590Z,312
2017-06-02T00:56:07.075Z,299
2017-06-02T00:57:14.907Z,304
2017-06-02T00:58:22.394Z,307
2017-06-02T00:59:29.552Z,305
2017-06-02T01:00:36.721Z,305
2017-06-02T01:01:44.204Z,307
2017-06-02T01:02:52.036Z,312
2017-06-02T01:03:59.199Z,302
2017-06-02T01:05:06.695Z,304
2017-06-02T01:06:14.180Z,310
2017-06-02T01:07:21.662Z,303
2017-06-02T01:08:29.504Z,308
2017-06-02T01:09:37.190Z,307
2017-06-02T01:10:44.688Z,310
2017-06-02T01:11:52.200Z,310
2017-06-02T01:12:59.681Z,313
2017-06-02T01:14:07.141Z,303
2017-06-02T01:15:14.643Z,308
2017-06-02T01:16:22.123Z,303
2017-06-02T01:17:29.603Z,298
2017-06-02T01:18:37.095Z,303
2017-06-02T01:19:44.927Z,309
2017-06-02T01:20:52.411Z,301
2017-06-02T01:21:59.892Z,309
2017-06-02T01:23:07.384Z,302
2017-06-02T01:24:14.534Z,308
2017-06-02T01:25:22.319Z,300
2017-06-02T01:26:29.799Z,308
2017-06-02T01:27:37.289Z,309
2017-06-02T01:28:44.105Z,310
2017-06-02T01:29:51.588Z,302
2017-06-02T01:30:59.427Z,302
2017-06-02T01:32:06.920Z,308
2017-06-02T01:33:14.073Z,304
2017-06-02T01:34:21.552Z,299
2017-06-02T01:35:29.034Z,305
2017-06-02T01:36:36.814Z,305
2017-06-02T01:37:44.292Z,306
2017-06-02T01:38:51.776Z,306
2017-06-02T01:39:58.934Z,309
2017-06-02T01:41:06.417Z,305
2017-06-02T01:42:14.253Z,309
2017-06-02T01:43:21.735Z,309
2017-06-02T01:44:29.225Z,314
2017-06-02T01:45:36.708Z,307
2017-06-02T01:46:44.191Z,307
2017-06-02T01:47:52.028Z,304
2017-06-02T01:48:59.508Z,308
2017-06-02T01:50:06.994Z,313
2017-06-02T01:51:14.473Z,310
2017-06-02T01:52:21.626Z,307
2017-06-02T01:53:29.405Z,311
2017-06-02T01:54:36.893Z,314
2017-06-02T01:55:44.051Z,309
2017-06-02T01:56:51.536Z,306
2017-06-02T01:57:58.697Z,311
2017-06-02T01:59:06.536Z,310
2017-06-02T02:00:14.019Z,310
2017-06-02T02:01:21.501Z,307
2017-06-02T02:02:28.996Z,311
2017-06-02T02:03:36.481Z,317
2017-06-02T02:04:43.945Z,302
2017-06-02T02:05:51.435Z,304
2017-06-02T02:06:58.917Z,311
2017-06-02T02:08:06.648Z,303
2017-06-02T02:09:14.127Z,308
2017-06-02T02:10:21.959Z,304
2017-06-02T02:11:29.120Z,307
2017-06-02T02:12:36.608Z,310
2017-06-02T02:13:43.768Z,317
2017-06-02T02:14:50.926Z,317
2017-06-02T02:15:58.703Z,310
2017-06-02T02:17:06.185Z,310
2017-06-02T02:18:13.667Z,310
2017-06-02T02:19:21.158Z,310
2017-06-02T02:20:28.319Z,310
2017-06-02T02:21:35.827Z,308
2017-06-02T02:22:43.309Z,306
2017-06-02T02:23:50.703Z,310
2017-06-02T02:24:58.179Z,307
2017-06-02T02:26:05.661Z,308
2017-06-02T02:27:13.161Z,312
2017-06-02T02:28:20.321Z,306
2017-06-02T02:29:27.484Z,310
2017-06-02T02:30:34.969Z,313
2017-06-02T02:31:42.453Z,310
2017-06-02T02:32:50.291Z,309
2017-06-02T02:33:57.769Z,311
2017-06-02T02:35:05.257Z,311
2017-06-02T02:36:12.742Z,315
2017-06-02T02:37:19.894Z,304
2017-06-02T02:38:27.723Z,308
2017-06-02T02:39:35.207Z,313
2017-06-02T02:40:42.688Z,315
2017-06-02T02:41:50.173Z,305
2017-06-02T02:42:57.335Z,309
2017-06-02T02:44:05.120Z,304
2017-06-02T02:45:12.599Z,315
2017-06-02T02:46:20.084Z,312
2017-06-02T02:47:27.233Z,312
2017-06-02T02:48:34.719Z,312
2017-06-02T02:49:42.553Z,316
2017-06-02T02:50:50.041Z,316
2017-06-02T02:51:56.788Z,304
2017-06-02T02:53:04.267Z,313
2017-06-02T02:54:11.421Z,304
2017-06-02T02:55:18.921Z,305
2017-06-02T02:56:26.402Z,311
2017-06-02T02:57:33.893Z,316
2017-06-02T02:58:41.373Z,311
2017-06-02T02:59:48.860Z,315
2017-06-02T03:00:56.368Z,311
2017-06-02T03:02:03.848Z,312
2017-06-02T03:03:10.994Z,305
2017-06-02T03:04:18.475Z,307
2017-06-02T03:05:25.629Z,309
2017-06-02T03:06:33.471Z,302
2017-06-02T03:07:40.963Z,318
2017-06-02T03:08:48.117Z,312
2017-06-02T03:09:55.600Z,306
2017-06-02T03:11:02.759Z,319
2017-06-02T03:12:10.583Z,312
2017-06-02T03:13:18.067Z,310
2017-06-02T03:14:25.546Z,315
2017-06-02T03:15:33.027Z,312
2017-06-02T03:16:40.520Z,315
2017-06-02T03:17:48.348Z,304
2017-06-02T03:18:55.836Z,318
2017-06-02T03:20:03.318Z,312
2017-06-02T03:21:10.464Z,313
2017-06-02T03:22:17.941Z,316
2017-06-02T03:23:25.770Z,304
2017-06-02T03:24:33.251Z,317
2017-06-02T03:25:40.743Z,311
2017-06-02T03:26:48.224Z,316
2017-06-02T03:27:55.709Z,308
2017-06-02T03:29:03.495Z,307
2017-06-02T03:30:10.986Z,315
2017-06-02T03:31:18.464Z,310
2017-06-02T03:32:25.943Z,316
2017-06-02T03:33:33.420Z,320
2017-06-02T03:34:40.912Z,319
2017-06-02T03:35:48.069Z,306
2017-06-02T03:36:55.226Z,307
2017-06-02T03:38:02.384Z,316
2017-06-02T03:39:09.862Z,312
2017-06-02T03:40:17.700Z,313
2017-06-02T03:41:25.184Z,320
2017-06-02T03:42:32.667Z,306
2017-06-02T03:43:40.213Z,314
2017-06-02T03:44:47.700Z,314
2017-06-02T03:45:55.534Z,321
2017-06-02T03:47:03.012Z,312
2017-06-02T03:48:10.496Z,320
2017-06-02T03:49:17.647Z,312
2017-06-02T03:50:25.134Z,309
2017-06-02T03:51:32.918Z,308
2017-06-02T03:52:40.402Z,310
2017-06-02T03:53:47.883Z,315
2017-06-02T03:54:55.364Z,315
2017-06-02T03:56:02.849Z,313
2017-06-02T03:57:10.547Z,314
2017-06-02T03:58:18.029Z,305
2017-06-02T03:59:25.509Z,313
2017-06-02T04:00:33.005Z,314
2017-06-02T04:01:40.502Z,305
2017-06-02T04:02:48.286Z,320
2017-06-02T04:03:55.765Z,315
2017-06-02T04:05:02.929Z,305
2017-06-02T04:06:10.420Z,312
2017-06-02T04:07:17.905Z,314
2017-06-02T04:08:25.354Z,312
2017-06-02T04:09:32.839Z,311
2017-06-02T04:10:40.332Z,314
2017-06-02T04:11:47.811Z,314
2017-06-02T04:12:55.291Z,313
2017-06-02T04:14:03.081Z,313
2017-06-02T04:15:10.564Z,314
2017-06-02T04:16:17.718Z,311
2017-06-02T04:17:25.194Z,303
2017-06-02T04:18:32.679Z,316
2017-06-02T04:19:40.462Z,308
2017-06-02T04:20:47.616Z,317
2017-06-02T04:21:54.775Z,315
2017-06-02T04:23:02.307Z,314
2017-06-02T04:24:09.793Z,309
2017-06-02T04:25:17.587Z,305
2017-06-02T04:26:25.075Z,310
2017-06-02T04:27:32.577Z,311
2017-06-02T04:28:39.728Z,310
2017-06-02T04:29:46.551Z,310
2017-06-02T04:30:54.332Z,310
2017-06-02T04:32:01.817Z,311
2017-06-02T04:33:09.311Z,314
2017-06-02T04:34:16.794Z,314
2017-06-02T04:35:23.943Z,303
2017-06-02T04:36:31.731Z,314
2017-06-02T04:37:39.211Z,305
2017-06-02T04:38:46.693Z,314
2017-06-02T04:39:54.182Z,304
2017-06-02T04:41:01.676Z,310
2017-06-02T04:42:09.135Z,311
2017-06-02T04:43:16.618Z,310
2017-06-02T04:44:24.097Z,318
2017-06-02T04:45:31.581Z,316
2017-06-02T04:46:39.067Z,313
2017-06-02T04:47:46.516Z,314
2017-06-02T04:48:53.670Z,320
2017-06-02T04:50:01.159Z,311
2017-06-02T04:51:08.637Z,319
2017-06-02T04:52:16.122Z,312
2017-06-02T04:53:23.897Z,306
2017-06-02T04:54:31.382Z,311
2017-06-02T04:55:38.529Z,302
2017-06-02T04:56:46.026Z,303
2017-06-02T04:57:53.503Z,304
2017-06-02T04:59:01.338Z,320
2017-06-02T05:00:08.833Z,310
2017-06-02T05:01:16.311Z,310
2017-06-02T05:02:23.790Z,317
2017-06-02T05:03:30.941Z,312
2017-06-02T05:04:38.468Z,312
2017-06-02T05:05:45.951Z,311
2017-06-02T05:06:52.795Z,308
2017-06-02T05:08:00.288Z,312
2017-06-02T05:09:07.778Z,311
2017-06-02T05:10:15.826Z,314
2017-06-02T05:11:23.313Z,312
2017-06-02T05:12:30.800Z,312
2017-06-02T05:13:38.277Z,306
2017-06-02T05:14:45.760Z,316
2017-06-02T05:15:53.602Z,310
2017-06-02T05:17:00.747Z,308
2017-06-02T05:18:07.579Z,304
2017-06-02T05:19:15.057Z,311
2017-06-02T05:20:22.539Z,309
2017-06-02T05:21:30.372Z,310
2017-06-02T05:22:37.853Z,316
2017-06-02T05:23:45.351Z,305
2017-06-02T05:24:52.834Z,304
2017-06-02T05:26:00.323Z,316
2017-06-02T05:27:08.165Z,309
2017-06-02T05:28:15.644Z,310
2017-06-02T05:29:23.149Z,313
2017-06-02T05:30:30.631Z,306
2017-06-02T05:31:38.115Z,316
2017-06-02T05:32:45.906Z,315
2017-06-02T05:33:53.399Z,309
2017-06-02T05:35:00.888Z,308
2017-06-02T05:36:08.376Z,316
2017-06-02T05:37:15.857Z,306
2017-06-02T05:38:23.634Z,310
2017-06-02T05:39:31.121Z,302
2017-06-02T05:40:38.599Z,305
2017-06-02T05:41:46.080Z,305
2017-06-02T05:42:53.579Z,306
2017-06-02T05:44:01.413Z,311
2017-06-02T05:45:08.561Z,310
2017-06-02T05:46:15.719Z,300
2017-06-02T05:47:22.896Z,312
2017-06-02T05:48:30.037Z,308
2017-06-02T05:49:37.868Z,311
2017-06-02T05:50:45.360Z,304
2017-06-02T05:51:52.849Z,313
2017-06-02T05:53:00.014Z,296
2017-06-02T05:54:07.169Z,303
2017-06-02T05:55:14.641Z,307
2017-06-02T05:56:22.130Z,302
2017-06-02T05:57:29.619Z,302
2017-06-02T05:58:37.109Z,298
2017-06-02T05:59:44.596Z,302
2017-06-02T06:00:52.103Z,302
2017-06-02T06:01:59.585Z,300
2017-06-02T06:03:06.739Z,306
2017-06-02T06:04:14.234Z,301
2017-06-02T06:05:21.716Z,303
2017-06-02T06:06:29.554Z,306
2017-06-02T06:07:37.042Z,305
2017-06-02T06:08:44.198Z,305
2017-06-02T06:09:51.690Z,304
2017-06-02T06:10:58.843Z,298
2017-06-02T06:12:06.353Z,290
2017-06-02T06:13:13.843Z,292
2017-06-02T06:14:21.328Z,295
2017-06-02T06:15:28.487Z,292
2017-06-02T06:16:35.976Z,302
2017-06-02T06:17:43.434Z,292
2017-06-02T06:18:50.913Z,301
2017-06-02T06:19:58.402Z,296
2017-06-02T06:21:05.890Z,295
2017-06-02T06:22:13.374Z,298
2017-06-02T06:23:20.884Z,289
2017-06-02T06:24:28.371Z,292
2017-06-02T06:25:35.858Z,291
2017-06-02T06:26:43.355Z,298
2017-06-02T06:27:50.838Z,286
2017-06-02T06:28:58.673Z,284
2017-06-02T06:30:06.158Z,291
2017-06-02T06:31:13.649Z,287
2017-06-02T06:32:21.137Z,283
2017-06-02T06:33:28.289Z,287
2017-06-02T06:34:36.130Z,289
2017-06-02T06:35:43.635Z,285
2017-06-02T06:36:50.792Z,285
2017-06-02T06:37:58.280Z,282
2017-06-02T06:39:05.776Z,288
2017-06-02T06:40:13.565Z,278
2017-06-02T06:41:21.051Z,293
2017-06-02T06:42:28.207Z,279
2017-06-02T06:43:35.692Z,287
2017-06-02T06:44:43.174Z,277
2017-06-02T06:45:50.969Z,285
2017-06-02T06:46:58.458Z,284
2017-06-02T06:48:05.947Z,289
2017-06-02T06:49:13.453Z,288
2017-06-02T06:50:20.936Z,274
2017-06-02T06:51:28.722Z,279
2017-06-02T06:52:36.204Z,279
2017-06-02T06:53:43.695Z,273
2017-06-02T06:54:50.857Z,281
2017-06-02T06:55:58.347Z,278
2017-06-02T06:57:06.143Z,278
2017-06-02T06:58:13.631Z,278
2017-06-02T06:59:21.125Z,275
2017-06-02T07:00:28.619Z,270
2017-06-02T07:01:36.102Z,274
2017-06-02T07:02:43.883Z,283
2017-06-02T07:03:51.374Z,280
2017-06-02T07:04:58.530Z,279
2017-06-02T07:06:05.361Z,284
2017-06-02T07:07:12.845Z,280
2017-06-02T07:08:20.637Z,278
2017-06-02T07:09:28.119Z,273
2017-06-02T07:10:35.608Z,279
2017-06-02T07:11:42.769Z,276
2017-06-02T07:12:50.267Z,281
2017-06-02T07:13:58.054Z,280
2017-06-02T07:15:05.536Z,269
2017-06-02T07:16:13.027Z,276
2017-06-02T07:17:20.512Z,275
2017-06-02T07:18:27.668Z,268
2017-06-02T07:19:35.135Z,273
2017-06-02T07:20:42.624Z,271
2017-06-02T07:21:50.112Z,278
2017-06-02T07:22:57.597Z,279
2017-06-02T07:24:05.093Z,269
2017-06-02T07:25:12.878Z,268
2017-06-02T07:26:20.391Z,273
2017-06-02T07:27:27.885Z,276
2017-06-02T07:28:35.371Z,272
2017-06-02T07:29:42.869Z,274
2017-06-02T07:30:50.663Z,267
2017-06-02T07:31:58.157Z,264
2017-06-02T07:33:05.669Z,265
2017-06-02T07:34:13.159Z,266
2017-06-02T07:35:20.651Z,266
2017-06-02T07:36:28.441Z,273
2017-06-02T07:37:35.932Z,264
2017-06-02T07:38:43.425Z,269
2017-06-02T07:39:50.256Z,271
2017-06-02T07:40:57.753Z,267
2017-06-02T07:42:05.547Z,267
2017-06-02T07:43:12.711Z,268
2017-06-02T07:44:20.202Z,270
2017-06-02T07:45:27.698Z,269
2017-06-02T07:46:35.192Z,267
2017-06-02T07:47:42.653Z,262
2017-06-02T07:48:50.154Z,262
2017-06-02T07:49:57.645Z,262
2017-06-02T07:51:05.142Z,255
2017-06-02T07:52:12.629Z,264
2017-06-02T07:53:20.419Z,268
2017-06-02T07:54:27.910Z,261
2017-06-02T07:55:35.406Z,261
2017-06-02T07:56:42.898Z,262
2017-06-02T07:57:50.404Z,263
2017-06-02T07:58:57.863Z,264
2017-06-02T08:00:05.356Z,261
2017-06-02T08:01:12.848Z,262
2017-06-02T08:02:20.355Z,264
2017-06-02T08:03:27.848Z,258
2017-06-02T08:04:35.639Z,260
2017-06-02T08:05:43.131Z,254
2017-06-02T08:06:50.619Z,257
2017-06-02T08:07:58.107Z,255
2017-06-02T08:09:05.597Z,260
2017-06-02T08:10:13.383Z,261
2017-06-02T08:11:20.550Z,262
2017-06-02T08:12:27.721Z,265
2017-06-02T08:13:35.278Z,265
2017-06-02T08:14:42.774Z,260
2017-06-02T08:15:50.565Z,252
2017-06-02T08:16:58.059Z,264
2017-06-02T08:18:05.226Z,249
2017-06-02T08:19:12.715Z,251
2017-06-02T08:20:20.213Z,258
2017-06-02T08:21:27.999Z,254
2017-06-02T08:22:34.835Z,252
2017-06-02T08:23:42.373Z,248
2017-06-02T08:24:49.864Z,262
2017-06-02T08:25:57.352Z,250
2017-06-02T08:27:05.139Z,247
2017-06-02T08:28:12.625Z,256
2017-06-02T08:29:20.110Z,259
2017-06-02T08:30:27.605Z,259
2017-06-02T08:31:35.103Z,251
2017-06-02T08:32:42.902Z,259
2017-06-02T08:33:50.632Z,251
2017-06-02T08:34:58.113Z,259
2017-06-02T08:36:05.600Z,245
2017-06-02T08:37:13.089Z,258
2017-06-02T08:38:20.549Z,247
2017-06-02T08:39:27.712Z,257
2017-06-02T08:40:34.869Z,249
2017-06-02T08:41:42.359Z,253
2017-06-02T08:42:49.851Z,258
2017-06-02T08:43:57.639Z,250
2017-06-02T08:45:05.145Z,243
2017-06-02T08:46:11.978Z,249
2017-06-02T08:47:19.141Z,246
2017-06-02T08:48:26.321Z,249
2017-06-02T08:49:34.116Z,258
2017-06-02T08:50:41.604Z,258
2017-06-02T08:51:49.094Z,253
2017-06-02T08:52:56.264Z,244
2017-06-02T08:54:03.426Z,248
2017-06-02T08:55:11.216Z,245
2017-06-02T08:56:18.705Z,245
2017-06-02T08:57:26.204Z,253
2017-06-02T08:58:33.369Z,248
2017-06-02T08:59:40.920Z,252
2017-06-02T09:00:48.776Z,253
2017-06-02T09:01:55.939Z,247
2017-06-02T09:03:03.433Z,247
2017-06-02T09:04:10.924Z,249
2017-06-02T09:05:18.439Z,252
2017-06-02T09:06:26.279Z,257
2017-06-02T09:07:33.771Z,256
2017-06-02T09:08:41.262Z,246
2017-06-02T09:09:48.755Z,245
2017-06-02T09:10:56.258Z,247
2017-06-02T09:12:04.105Z,252
2017-06-02T09:13:11.277Z,243
2017-06-02T09:14:18.449Z,256
2017-06-02T09:15:25.608Z,244
2017-06-02T09:16:33.098Z,243
2017-06-02T09:17:40.608Z,250
2017-06-02T09:18:48.095Z,251
2017-06-02T09:19:55.590Z,245
2017-06-02T09:21:03.092Z,252
2017-06-02T09:22:10.585Z,251
2017-06-02T09:23:18.447Z,254
2017-06-02T09:24:25.937Z,250
2017-06-02T09:25:33.431Z,244
2017-06-02T09:26:40.925Z,250
2017-06-02T09:27:48.415Z,243
2017-06-02T09:28:56.266Z,241
2017-06-02T09:30:03.757Z,250
2017-06-02T09:31:11.247Z,249
2017-06-02T09:32:18.739Z,249
2017-06-02T09:33:26.236Z,249
2017-06-02T09:34:34.079Z,242
2017-06-02T09:35:41.579Z,248
2017-06-02T09:36:48.740Z,242
2017-06-02T09:37:56.230Z,241
2017-06-02T09:39:03.720Z,245
2017-06-02T09:40:11.559Z,238
2017-06-02T09:41:19.046Z,247
2017-06-02T09:42:26.533Z,237
2017-06-02T09:43:34.022Z,249
2017-06-02T09:44:41.515Z,248
2017-06-02T09:45:49.307Z,247
2017-06-02T09:46:56.799Z,243
2017-06-02T09:48:04.290Z,240
2017-06-02T09:49:11.451Z,238
2017-06-02T09:50:18.614Z,244
2017-06-02T09:51:26.409Z,244
2017-06-02T09:52:33.917Z,245
2017-06-02T09:53:41.409Z,235
2017-06-02T09:54:48.902Z,244
2017-06-02T09:55:56.390Z,245
2017-06-02T09:57:04.185Z,238
2017-06-02T09:58:11.680Z,234
2017-06-02T09:59:19.177Z,242
2017-06-02T10:00:26.667Z,237
2017-06-02T10:01:34.158Z,243
2017-06-02T10:02:41.949Z,237
2017-06-02T10:03:49.437Z,241
2017-06-02T10:04:56.927Z,245
2017-06-02T10:06:04.418Z,244
2017-06-02T10:07:11.914Z,242
2017-06-02T10:08:19.758Z,242
2017-06-02T10:09:27.255Z,239
2017-06-02T10:10:34.749Z,238
2017-06-02T10:11:42.238Z,244
2017-06-02T10:12:49.730Z,239
2017-06-02T10:13:57.521Z,235
2017-06-02T10:15:05.018Z,229
2017-06-02T10:16:12.511Z,239
2017-06-02T10:17:20.000Z,239
2017-06-02T10:18:27.488Z,237
2017-06-02T10:19:35.333Z,237
2017-06-02T10:20:42.495Z,230
2017-06-02T10:21:49.980Z,230
2017-06-02T10:22:57.475Z,235
2017-06-02T10:24:04.964Z,233
2017-06-02T10:25:12.815Z,234
2017-06-02T10:26:20.308Z,240
2017-06-02T10:27:27.469Z,242
2017-06-02T10:28:34.976Z,228
2017-06-02T10:29:42.470Z,236
2017-06-02T10:30:50.267Z,230
2017-06-02T10:31:57.765Z,237
2017-06-02T10:33:05.259Z,241
2017-06-02T10:34:12.748Z,230
2017-06-02T10:35:20.243Z,230
2017-06-02T10:36:28.087Z,230
2017-06-02T10:37:35.581Z,228
2017-06-02T10:38:43.073Z,236
2017-06-02T10:39:49.906Z,227
2017-06-02T10:40:57.398Z,237
2017-06-02T10:42:05.213Z,237
2017-06-02T10:43:12.706Z,234
2017-06-02T10:44:20.201Z,239
2017-06-02T10:45:27.696Z,235
2017-06-02T10:46:35.192Z,231
2017-06-02T10:47:42.986Z,230
2017-06-02T10:48:50.475Z,226
2017-06-02T10:49:57.977Z,237
2017-06-02T10:51:05.475Z,223
2017-06-02T10:52:13.209Z,231
2017-06-02T10:53:21.004Z,227
2017-06-02T10:54:28.498Z,228
2017-06-02T10:55:36.000Z,234
2017-06-02T10:56:43.486Z,228
2017-06-02T10:57:50.987Z,224
2017-06-02T10:58:58.452Z,222
2017-06-02T11:00:05.950Z,224
2017-06-02T11:01:13.113Z,236
2017-06-02T11:02:20.609Z,223
2017-06-02T11:03:28.108Z,229
2017-06-02T11:04:35.902Z,234
2017-06-02T11:05:43.068Z,226
2017-06-02T11:06:50.552Z,237
2017-06-02T11:07:58.046Z,235
2017-06-02T11:09:05.536Z,226
2017-06-02T11:10:12.996Z,232
2017-06-02T11:11:20.486Z,232
2017-06-02T11:12:27.984Z,235
2017-06-02T11:13:35.477Z,226
2017-06-02T11:14:42.970Z,221
2017-06-02T11:15:50.771Z,226
2017-06-02T11:16:58.285Z,231
2017-06-02T11:18:05.787Z,231
2017-06-02T11:19:12.624Z,232
2017-06-02T11:20:20.117Z,227
2017-06-02T11:21:27.921Z,229
2017-06-02T11:22:35.423Z,230
2017-06-02T11:23:42.597Z,224
2017-06-02T11:24:50.092Z,231
2017-06-02T11:25:57.253Z,228
2017-06-02T11:27:04.721Z,235
2017-06-02T11:28:12.211Z,221
2017-06-02T11:29:19.338Z,231
2017-06-02T11:30:26.834Z,232
2017-06-02T11:31:34.008Z,231
2017-06-02T11:32:41.804Z,224
2017-06-02T11:33:49.306Z,231
2017-06-02T11:34:56.803Z,231
2017-06-02T11:36:03.992Z,231
2017-06-02T11:37:11.497Z,223
2017-06-02T11:38:19.296Z,221
2017-06-02T11:39:26.796Z,234
2017-06-02T11:40:34.288Z,225
2017-06-02T11:41:41.782Z,226
2017-06-02T11:42:49.279Z,223
2017-06-02T11:43:57.073Z,229
2017-06-02T11:45:04.569Z,219
2017-06-02T11:46:12.064Z,224
2017-06-02T11:47:19.557Z,220
2017-06-02T11:48:26.726Z,230
2017-06-02T11:49:34.518Z,231
2017-06-02T11:50:41.682Z,231
2017-06-02T11:51:49.183Z,233
2017-06-02T11:52:56.691Z,222
2017-06-02T11:54:03.870Z,228
2017-06-02T11:55:11.671Z,223
2017-06-02T11:56:19.176Z,221
2017-06-02T11:57:26.298Z,227
2017-06-02T11:58:33.800Z,230
2017-06-02T11:59:41.293Z,228
2017-06-02T12:00:49.093Z,219
2017-06-02T12:01:56.591Z,225
2017-06-02T12:03:04.086Z,218
2017-06-02T12:04:11.249Z,227
2017-06-02T12:05:18.745Z,232
2017-06-02T12:06:26.568Z,229
2017-06-02T12:07:34.068Z,228
2017-06-02T12:08:41.251Z,227
2017-06-02T12:09:48.428Z,221
2017-06-02T12:10:55.609Z,222
2017-06-02T12:12:03.405Z,218
2017-06-02T12:13:10.576Z,231
2017-06-02T12:14:17.738Z,221
2017-06-02T12:15:25.232Z,230
2017-06-02T12:16:32.727Z,230
2017-06-02T12:17:40.191Z,226
2017-06-02T12:18:47.695Z,228
2017-06-02T12:19:55.187Z,230
2017-06-02T12:21:02.680Z,229
2017-06-02T12:22:10.184Z,217
2017-06-02T12:23:17.978Z,226
2017-06-02T12:24:25.479Z,224
2017-06-02T12:25:32.977Z,218
2017-06-02T12:26:40.476Z,227
2017-06-02T12:27:47.976Z,228
2017-06-02T12:28:55.777Z,226
2017-06-02T12:30:02.954Z,226
2017-06-02T12:31:10.129Z,224
2017-06-02T12:32:17.626Z,226
2017-06-02T12:33:25.118Z,225
2017-06-02T12:34:32.919Z,214
2017-06-02T12:35:40.417Z,225
2017-06-02T12:36:47.919Z,215
2017-06-02T12:37:55.419Z,220
2017-06-02T12:39:02.924Z,218
2017-06-02T12:40:10.717Z,221
2017-06-02T12:41:17.884Z,219
2017-06-02T12:42:25.050Z,216
2017-06-02T12:43:32.547Z,217
2017-06-02T12:44:40.060Z,217
2017-06-02T12:45:47.857Z,217
2017-06-02T12:46:55.035Z,226
2017-06-02T12:48:02.535Z,218
2017-06-02T12:49:10.029Z,228
2017-06-02T12:50:17.521Z,220
2017-06-02T12:51:24.998Z,227
2017-06-02T12:52:32.501Z,224
2017-06-02T12:53:39.999Z,220
2017-06-02T12:54:46.837Z,215
2017-06-02T12:55:54.339Z,224
2017-06-02T12:57:01.808Z,217
2017-06-02T12:58:09.301Z,216
2017-06-02T12:59:16.796Z,224
2017-06-02T13:00:24.295Z,227
2017-06-02T13:01:31.797Z,226
2017-06-02T13:02:39.598Z,223
2017-06-02T13:03:47.094Z,222
2017-06-02T13:04:54.593Z,219
2017-06-02T13:06:02.103Z,223
2017-06-02T13:07:09.602Z,220
2017-06-02T13:08:17.445Z,216
2017-06-02T13:09:24.941Z,223
2017-06-02T13:10:32.448Z,212
2017-06-02T13:11:39.944Z,221
2017-06-02T13:12:47.641Z,217
2017-06-02T13:13:55.437Z,213
2017-06-02T13:15:02.939Z,224
2017-06-02T13:16:10.438Z,223
2017-06-02T13:17:17.936Z,225
2017-06-02T13:18:25.431Z,222
2017-06-02T13:19:33.234Z,223
2017-06-02T13:20:40.730Z,216
2017-06-02T13:21:48.230Z,214
2017-06-02T13:22:55.725Z,225
2017-06-02T13:24:03.224Z,225
2017-06-02T13:25:11.070Z,217
2017-06-02T13:26:18.566Z,223
2017-06-02T13:27:26.067Z,225
2017-06-02T13:28:33.563Z,224
2017-06-02T13:29:41.060Z,224
2017-06-02T13:30:48.914Z,224
2017-06-02T13:31:56.082Z,214
2017-06-02T13:33:03.579Z,216
2017-06-02T13:34:10.746Z,213
2017-06-02T13:35:18.243Z,213
2017-06-02T13:36:26.089Z,222
2017-06-02T13:37:33.256Z,223
2017-06-02T13:38:40.753Z,223
2017-06-02T13:39:48.247Z,219
2017-06-02T13:40:55.745Z,221
2017-06-02T13:42:03.598Z,215
2017-06-02T13:43:10.765Z,212
2017-06-02T13:44:18.267Z,216
2017-06-02T13:45:25.431Z,222
2017-06-02T13:46:32.931Z,213
2017-06-02T13:47:40.747Z,220
2017-06-02T13:48:47.924Z,211
2017-06-02T13:49:55.415Z,218
2017-06-02T13:51:02.251Z,213
2017-06-02T13:52:09.760Z,212
2017-06-02T13:53:17.604Z,211
2017-06-02T13:54:24.777Z,213
2017-06-02T13:55:32.286Z,210
2017-06-02T13:56:39.789Z,211
2017-06-02T13:57:47.293Z,221
2017-06-02T13:58:55.096Z,208
2017-06-02T14:00:01.938Z,213
2017-06-02T14:01:09.459Z,216
2017-06-02T14:02:16.957Z,219
2017-06-02T14:03:24.458Z,221
2017-06-02T14:04:32.307Z,211
2017-06-02T14:05:39.802Z,211
2017-06-02T14:06:47.305Z,220
2017-06-02T14:07:54.803Z,218
2017-06-02T14:09:01.969Z,221
2017-06-02T14:10:09.817Z,211
2017-06-02T14:11:16.989Z,212
2017-06-02T14:12:24.486Z,211
2017-06-02T14:13:31.983Z,216
2017-06-02T14:14:39.703Z,219
2017-06-02T14:15:47.552Z,212
2017-06-02T14:16:55.053Z,221
2017-06-02T14:18:02.547Z,215
2017-06-02T14:19:10.054Z,218
2017-06-02T14:20:17.555Z,221
2017-06-02T14:21:25.349Z,208
2017-06-02T14:22:32.516Z,211
2017-06-02T14:23:40.018Z,218
2017-06-02T14:24:47.189Z,221
2017-06-02T14:25:54.687Z,211
2017-06-02T14:27:02.487Z,216
2017-06-02T14:28:09.983Z,208
2017-06-02T14:29:17.479Z,222
2017-06-02T14:30:24.977Z,220
2017-06-02T14:31:32.484Z,213
2017-06-02T14:32:39.968Z,221
2017-06-02T14:33:47.471Z,210
2017-06-02T14:34:54.319Z,210
2017-06-02T14:36:01.814Z,221
2017-06-02T14:37:09.321Z,219
2017-06-02T14:38:17.168Z,208
2017-06-02T14:39:24.357Z,220
2017-06-02T14:40:31.893Z,215
2017-06-02T14:41:39.392Z,214
2017-06-02T14:42:46.568Z,219
2017-06-02T14:43:54.421Z,218
2017-06-02T14:45:01.599Z,211
2017-06-02T14:46:09.096Z,218
2017-06-02T14:47:16.293Z,219
2017-06-02T14:48:23.794Z,210
2017-06-02T14:49:31.642Z,209
2017-06-02T14:50:39.146Z,212
2017-06-02T14:51:46.648Z,210
2017-06-02T14:52:54.182Z,214
2017-06-02T14:54:01.684Z,209
2017-06-02T14:55:09.535Z,208
2017-06-02T14:56:17.028Z,213
2017-06-02T14:57:24.527Z,209
2017-06-02T14:58:32.035Z,213
2017-06-02T14:59:39.540Z,205
2017-06-02T15:00:47.334Z,206
2017-06-02T15:01:54.852Z,217
2017-06-02T15:03:02.350Z,208
2017-06-02T15:04:09.855Z,205
2017-06-02T15:05:17.019Z,218
2017-06-02T15:06:24.539Z,217
2017-06-02T15:07:31.714Z,209
2017-06-02T15:08:39.212Z,216
2017-06-02T15:09:46.717Z,207
2017-06-02T15:10:54.220Z,206
2017-06-02T15:12:02.065Z,214
2017-06-02T15:13:09.569Z,207
2017-06-02T15:14:16.742Z,204
2017-06-02T15:15:24.250Z,205
2017-06-02T15:16:31.750Z,215
2017-06-02T15:17:39.605Z,207
2017-06-02T15:18:47.112Z,204
2017-06-02T15:19:54.278Z,215
2017-06-02T15:21:01.781Z,216
2017-06-02T15:22:09.287Z,204
2017-06-02T15:23:17.136Z,211
2017-06-02T15:24:24.654Z,215
2017-06-02T15:25:32.151Z,206
2017-06-02T15:26:39.321Z,210
2017-06-02T15:27:46.840Z,205
2017-06-02T15:28:54.600Z,205
2017-06-02T15:30:02.097Z,209